createdAt,value
2023-03-05T00:00:00.841Z,3.83
2023-03-05T00:02:28.611Z,3.92
2023-03-05T00:04:56.754Z,3.85
2023-03-05T00:07:24.557Z,4.05
2023-03-05T00:09:52.350Z,4.20
2023-03-05T00:12:20.094Z,3.33
2023-03-05T00:14:47.800Z,3.30
2023-03-05T00:17:16.919Z,3.25
2023-03-05T00:19:44.713Z,3.65
2023-03-05T00:22:12.434Z,3.88
2023-03-05T00:24:40.166Z,4.97
2023-03-05T00:27:07.920Z,3.80
2023-03-05T00:29:35.623Z,4.68
2023-03-05T00:32:03.406Z,4.43
2023-03-05T00:34:32.560Z,4.45
2023-03-05T00:37:00.290Z,4.47
2023-03-05T00:39:29.003Z,3.53
2023-03-05T00:41:56.833Z,4.03
2023-03-05T00:44:24.626Z,3.70
2023-03-05T00:46:52.554Z,3.67
2023-03-05T00:49:20.357Z,3.08
2023-03-05T00:51:49.481Z,3.22
2023-03-05T00:54:17.255Z,4.57
2023-03-05T00:56:45.017Z,4.13
2023-03-05T00:59:12.804Z,5.32
2023-03-05T01:01:40.897Z,3.70
2023-03-05T01:04:08.885Z,4.97
2023-03-05T01:06:36.667Z,4.65
2023-03-05T01:09:05.792Z,4.28
2023-03-05T01:11:33.629Z,4.53
2023-03-05T01:14:01.438Z,4.22
2023-03-05T01:16:29.399Z,3.88
2023-03-05T01:18:57.160Z,4.55
2023-03-05T01:21:24.857Z,3.58
2023-03-05T01:23:52.574Z,3.95
2023-03-05T01:26:21.701Z,3.67
2023-03-05T01:28:49.440Z,4.15
2023-03-05T01:31:17.368Z,4.45
2023-03-05T01:33:45.179Z,3.00
2023-03-05T01:36:16.811Z,3.58
2023-03-05T01:38:46.205Z,4.22
2023-03-05T01:41:16.231Z,4.50
2023-03-05T01:43:52.870Z,4.22
2023-03-05T01:46:30.443Z,4.57
2023-03-05T01:49:04.682Z,4.45
2023-03-05T01:51:37.968Z,5.32
2023-03-05T01:54:08.284Z,3.60
2023-03-05T01:56:36.537Z,3.20
2023-03-05T01:59:05.757Z,3.80
2023-03-05T02:01:39.691Z,4.18
2023-03-05T02:04:09.568Z,5.18
2023-03-05T02:06:38.220Z,4.32
2023-03-05T02:09:06.272Z,5.68
2023-03-05T02:11:34.772Z,4.32
2023-03-05T02:14:03.345Z,4.22
2023-03-05T02:16:36.833Z,4.00
2023-03-05T02:21:40.211Z,4.07
2023-03-05T02:24:08.772Z,3.90
2023-03-05T02:26:36.529Z,4.80
2023-03-05T02:29:08.941Z,4.35
2023-03-05T02:31:38.989Z,5.15
2023-03-05T02:34:07.247Z,4.78
2023-03-05T02:36:35.182Z,4.07
2023-03-05T02:39:04.955Z,4.63
2023-03-05T02:41:32.735Z,5.38
2023-03-05T02:44:00.536Z,4.47
2023-03-05T02:46:28.314Z,4.60
2023-03-05T02:48:56.111Z,4.53
2023-03-05T02:51:23.833Z,4.53
2023-03-05T02:53:51.650Z,4.05
2023-03-05T02:56:20.759Z,3.58
2023-03-05T02:58:48.482Z,4.53
2023-03-05T03:01:16.317Z,4.47
2023-03-05T03:03:44.073Z,4.28
2023-03-05T03:06:11.768Z,4.55
2023-03-05T03:08:39.522Z,4.43
2023-03-05T03:11:08.304Z,3.95
2023-03-05T03:13:37.404Z,4.72
2023-03-05T03:16:07.227Z,4.10
2023-03-05T03:18:35.190Z,5.53
2023-03-05T03:21:02.969Z,5.35
2023-03-05T03:23:31.051Z,5.35
2023-03-05T03:25:59.185Z,4.97
2023-03-05T03:28:27.092Z,4.90
2023-03-05T03:30:56.300Z,4.30
2023-03-05T03:33:24.335Z,4.88
2023-03-05T03:35:52.166Z,4.15
2023-03-05T03:38:19.947Z,4.88
2023-03-05T03:40:47.748Z,5.10
2023-03-05T03:43:15.512Z,4.40
2023-03-05T03:45:43.746Z,4.97
2023-03-05T03:48:13.151Z,6.28
2023-03-05T03:50:41.655Z,5.25
2023-03-05T03:53:09.738Z,4.97
2023-03-05T03:55:37.493Z,5.45
2023-03-05T03:58:05.364Z,5.18
2023-03-05T04:00:33.167Z,4.45
2023-03-05T04:03:01.148Z,5.10
2023-03-05T04:05:30.643Z,5.63
2023-03-05T04:07:59.943Z,4.43
2023-03-05T04:10:27.766Z,5.43
2023-03-05T04:12:55.527Z,6.82
2023-03-05T04:15:23.544Z,4.68
2023-03-05T04:17:51.276Z,5.45
2023-03-05T04:20:19.082Z,5.57
2023-03-05T04:22:48.146Z,5.40
2023-03-05T04:25:16.047Z,7.43
2023-03-05T04:27:43.833Z,5.80
2023-03-05T04:30:15.611Z,6.15
2023-03-05T04:32:43.733Z,5.32
2023-03-05T04:35:11.600Z,4.45
2023-03-05T04:37:39.399Z,5.45
2023-03-05T04:40:10.156Z,6.45
2023-03-05T04:42:38.362Z,4.95
2023-03-05T04:45:07.748Z,5.45
2023-03-05T04:47:35.600Z,5.55
2023-03-05T04:50:03.636Z,5.72
2023-03-05T04:52:31.504Z,5.05
2023-03-05T04:54:59.287Z,5.95
2023-03-05T04:57:28.408Z,5.65
2023-03-05T04:59:56.174Z,4.65
2023-03-05T05:02:23.945Z,4.70
2023-03-05T05:04:53.931Z,4.70
2023-03-05T05:07:21.816Z,5.32
2023-03-05T05:09:49.648Z,5.35
2023-03-05T05:12:17.532Z,4.72
2023-03-05T05:14:46.772Z,6.05
2023-03-05T05:17:14.590Z,4.68
2023-03-05T05:19:42.624Z,5.70
2023-03-05T05:22:10.538Z,5.80
2023-03-05T05:24:38.372Z,4.72
2023-03-05T05:27:06.240Z,4.85
2023-03-05T05:29:34.050Z,4.32
2023-03-05T05:32:03.163Z,4.63
2023-03-05T05:34:30.930Z,6.32
2023-03-05T05:36:58.639Z,4.78
2023-03-05T05:39:26.444Z,5.05
2023-03-05T05:41:54.857Z,5.38
2023-03-05T05:44:22.608Z,5.00
2023-03-05T05:46:50.344Z,4.32
2023-03-05T05:49:19.523Z,5.43
2023-03-05T05:51:47.307Z,4.70
2023-03-05T05:54:15.858Z,4.53
2023-03-05T05:56:43.660Z,5.18
2023-03-05T05:59:11.759Z,4.40
2023-03-05T06:01:39.584Z,5.53
2023-03-05T06:04:07.389Z,4.45
2023-03-05T06:06:36.561Z,4.75
2023-03-05T06:09:04.850Z,4.35
2023-03-05T06:11:34.015Z,6.07
2023-03-05T06:14:02.895Z,6.22
2023-03-05T06:16:31.056Z,5.15
2023-03-05T06:18:58.955Z,4.25
2023-03-05T06:21:27.152Z,3.33
2023-03-05T06:23:56.293Z,4.80
2023-03-05T06:26:24.109Z,4.88
2023-03-05T06:28:52.520Z,4.35
2023-03-05T06:31:22.409Z,4.88
2023-03-05T06:33:50.815Z,4.93
2023-03-05T06:36:20.581Z,4.63
2023-03-05T06:38:49.128Z,4.60
2023-03-05T06:41:21.265Z,5.13
2023-03-05T06:43:50.136Z,4.40
2023-03-05T06:46:20.099Z,4.72
2023-03-05T06:48:48.573Z,4.45
2023-03-05T06:51:18.414Z,4.45
2023-03-05T06:53:49.244Z,4.40
2023-03-05T06:56:19.731Z,4.57
2023-03-05T06:58:49.043Z,4.05
2023-03-05T07:01:17.655Z,5.15
2023-03-05T07:03:45.480Z,3.75
2023-03-05T07:06:15.839Z,4.22
2023-03-05T07:08:44.725Z,3.72
2023-03-05T07:11:14.477Z,4.57
2023-03-05T07:13:44.456Z,4.50
2023-03-05T07:16:16.434Z,3.83
2023-03-05T07:18:44.308Z,4.43
2023-03-05T07:21:15.928Z,4.78
2023-03-05T07:23:43.724Z,4.55
2023-03-05T07:26:12.397Z,4.40
2023-03-05T07:28:40.756Z,4.10
2023-03-05T07:31:13.526Z,4.35
2023-03-05T07:33:41.429Z,4.75
2023-03-05T07:36:09.821Z,4.70
2023-03-05T07:38:38.116Z,4.65
2023-03-05T07:41:07.435Z,5.55
2023-03-05T07:43:35.171Z,5.60
2023-03-05T07:46:05.669Z,4.85
2023-03-05T07:48:34.977Z,5.05
2023-03-05T07:51:03.393Z,5.38
2023-03-05T07:53:31.427Z,4.63
2023-03-05T07:55:59.202Z,3.67
2023-03-05T07:58:27.327Z,3.78
2023-03-05T08:00:55.127Z,3.65
2023-03-05T08:03:22.900Z,3.63
2023-03-05T08:05:51.979Z,3.50
2023-03-05T08:08:19.824Z,4.22
2023-03-05T08:10:47.587Z,4.10
2023-03-05T08:13:15.400Z,4.50
2023-03-05T08:15:43.212Z,5.45
2023-03-05T08:18:11.043Z,4.25
2023-03-05T08:20:38.809Z,4.00
2023-03-05T08:23:07.894Z,4.55
2023-03-05T08:25:35.696Z,5.13
2023-03-05T08:28:03.460Z,4.30
2023-03-05T08:30:31.261Z,4.82
2023-03-05T08:32:58.963Z,4.25
2023-03-05T08:35:26.697Z,3.92
2023-03-05T08:37:54.465Z,3.60
2023-03-05T08:40:23.608Z,4.53
2023-03-05T08:42:52.240Z,4.25
2023-03-05T08:45:20.011Z,3.80
2023-03-05T08:47:47.793Z,3.75
2023-03-05T08:50:15.536Z,4.15
2023-03-05T08:52:43.237Z,4.65
2023-03-05T08:55:12.503Z,4.20
2023-03-05T08:57:41.750Z,3.95
2023-03-05T09:00:12.555Z,4.35
2023-03-05T09:02:40.485Z,3.83
2023-03-05T09:05:09.280Z,3.92
2023-03-05T09:07:37.923Z,4.30
2023-03-05T09:10:06.867Z,4.72
2023-03-05T09:12:34.558Z,4.57
2023-03-05T09:15:03.753Z,3.92
2023-03-05T09:17:31.468Z,5.53
2023-03-05T09:19:59.161Z,5.50
2023-03-05T09:22:26.977Z,5.45
2023-03-05T09:24:54.688Z,5.10
2023-03-05T09:27:22.419Z,4.22
2023-03-05T09:29:50.821Z,4.13
2023-03-05T09:32:19.903Z,5.35
2023-03-05T09:34:47.703Z,5.00
2023-03-05T09:37:15.449Z,4.35
2023-03-05T09:39:43.205Z,4.32
2023-03-05T09:42:29.834Z,5.13
2023-03-05T09:45:12.068Z,4.70
2023-03-05T09:47:54.132Z,4.82
2023-03-05T09:50:36.005Z,4.45
2023-03-05T09:53:09.028Z,4.65
2023-03-05T09:55:40.888Z,4.65
2023-03-05T09:58:14.158Z,5.03
2023-03-05T10:00:45.226Z,4.82
2023-03-05T10:03:20.849Z,4.30
2023-03-05T10:06:01.552Z,4.40
2023-03-05T10:08:41.381Z,5.32
2023-03-05T10:11:19.974Z,5.68
2023-03-05T10:13:48.725Z,4.57
2023-03-05T10:16:37.495Z,4.72
2023-03-05T10:19:15.910Z,4.38
2023-03-05T10:21:51.430Z,4.38
2023-03-05T10:24:27.936Z,4.50
2023-03-05T10:27:04.289Z,3.70
2023-03-05T10:29:56.275Z,5.20
2023-03-05T10:32:37.693Z,4.43
2023-03-05T10:35:23.454Z,4.65
2023-03-05T10:38:15.111Z,3.53
2023-03-05T10:40:48.001Z,3.72
2023-03-05T10:43:25.088Z,4.18
2023-03-05T10:45:55.148Z,4.13
2023-03-05T10:48:32.145Z,4.57
2023-03-05T10:51:12.060Z,4.60
2023-03-05T10:53:50.545Z,4.28
2023-03-05T10:56:22.635Z,3.25
2023-03-05T10:58:52.729Z,3.90
2023-03-05T11:01:23.037Z,4.05
2023-03-05T11:03:54.340Z,3.90
2023-03-05T11:06:35.699Z,4.07
2023-03-05T11:09:29.137Z,4.00
2023-03-05T11:12:15.499Z,4.47
2023-03-05T11:14:45.621Z,3.58
2023-03-05T11:17:29.466Z,4.00
2023-03-05T11:22:27.040Z,3.88
2023-03-05T11:25:14.173Z,5.00
2023-03-05T11:27:54.345Z,4.35
2023-03-05T11:30:26.628Z,4.13
2023-03-05T11:33:10.432Z,4.38
2023-03-05T11:35:40.894Z,3.55
2023-03-05T11:38:19.646Z,4.68
2023-03-05T11:40:48.228Z,3.85
2023-03-05T11:43:18.312Z,4.15
2023-03-05T11:45:48.475Z,3.78
2023-03-05T11:48:21.244Z,4.40
2023-03-05T11:50:53.532Z,4.03
2023-03-05T11:53:28.281Z,4.05
2023-03-05T11:56:00.327Z,4.07
2023-03-05T11:58:33.300Z,4.72
2023-03-05T12:01:04.063Z,4.28
2023-03-05T12:03:34.710Z,3.63
2023-03-05T12:06:11.984Z,4.38
2023-03-05T12:08:45.628Z,4.60
2023-03-05T12:11:18.941Z,3.35
2023-03-05T12:13:50.230Z,4.90
2023-03-05T12:16:34.443Z,3.67
2023-03-05T12:19:16.836Z,4.10
2023-03-05T12:21:50.508Z,3.28
2023-03-05T12:24:39.944Z,4.22
2023-03-05T12:27:14.901Z,3.22
2023-03-05T12:29:50.784Z,4.18
2023-03-05T12:33:01.286Z,4.15
2023-03-05T12:35:31.760Z,3.65
2023-03-05T12:38:28.175Z,4.10
2023-03-05T12:41:35.679Z,3.75
2023-03-05T12:44:23.766Z,5.47
2023-03-05T12:47:19.222Z,4.95
2023-03-05T12:49:49.065Z,3.33
2023-03-05T12:52:25.119Z,3.28
2023-03-05T12:55:21.383Z,3.78
2023-03-05T12:57:54.589Z,3.40
2023-03-05T13:00:28.426Z,4.07
2023-03-05T13:02:59.797Z,4.30
2023-03-05T13:05:31.385Z,3.15
2023-03-05T13:08:15.487Z,4.05
2023-03-05T13:10:43.801Z,3.78
2023-03-05T13:13:15.916Z,3.35
2023-03-05T13:15:48.304Z,3.97
2023-03-05T13:18:21.415Z,2.88
2023-03-05T13:20:52.142Z,3.60
2023-03-05T13:23:23.539Z,3.28
2023-03-05T13:26:03.528Z,3.40
2023-03-05T13:28:32.624Z,4.20
2023-03-05T13:31:04.600Z,3.08
2023-03-05T13:33:34.339Z,3.92
2023-03-05T13:36:02.777Z,3.25
2023-03-05T13:38:35.687Z,3.55
2023-03-05T13:41:06.221Z,3.05
2023-03-05T13:43:33.972Z,2.83
2023-03-05T13:46:03.352Z,3.40
2023-03-05T13:48:31.145Z,3.60
2023-03-05T13:50:59.374Z,3.33
2023-03-05T13:53:28.868Z,3.47
2023-03-05T13:55:59.595Z,3.80
2023-03-05T13:58:52.332Z,3.83
2023-03-05T14:01:30.074Z,3.60
2023-03-05T14:04:00.685Z,3.28
2023-03-05T14:06:30.970Z,3.13
2023-03-05T14:09:06.773Z,3.03
2023-03-05T14:11:36.714Z,3.53
2023-03-05T14:14:10.698Z,3.85
2023-03-05T14:16:39.920Z,3.72
2023-03-05T14:19:09.146Z,3.78
2023-03-05T14:21:48.133Z,3.42
2023-03-05T14:24:22.756Z,3.83
2023-03-05T14:26:52.949Z,3.58
2023-03-05T14:29:24.222Z,3.35
2023-03-05T14:31:55.731Z,3.55
2023-03-05T14:34:28.047Z,3.60
2023-03-05T14:36:59.017Z,3.50
2023-03-05T14:39:39.628Z,3.58
2023-03-05T14:42:27.890Z,3.42
2023-03-05T14:44:57.958Z,2.83
2023-03-05T14:47:28.308Z,3.80
2023-03-05T14:49:56.039Z,2.90
2023-03-05T14:52:26.044Z,3.47
2023-03-05T14:54:54.817Z,3.65
2023-03-05T14:57:24.843Z,3.40
2023-03-05T14:59:52.623Z,4.20
2023-03-05T15:02:22.022Z,3.55
2023-03-05T15:04:51.254Z,3.05
2023-03-05T15:07:21.571Z,3.35
2023-03-05T15:09:49.332Z,3.38
2023-03-05T15:12:18.264Z,3.90
2023-03-05T15:14:46.045Z,9.75
2023-03-05T15:17:20.956Z,14.70
2023-03-05T15:19:49.348Z,15.77
2023-03-05T15:22:18.648Z,10.20
2023-03-05T15:24:46.720Z,4.00
2023-03-05T15:27:14.632Z,3.60
2023-03-05T15:29:42.484Z,4.43
2023-03-05T15:32:10.481Z,3.67
2023-03-05T15:34:38.351Z,5.18
2023-03-05T15:37:06.144Z,3.15
2023-03-05T15:39:35.194Z,4.03
2023-03-05T15:42:04.487Z,4.05
2023-03-05T15:44:33.657Z,4.88
2023-03-05T15:47:01.355Z,4.30
2023-03-05T15:49:29.209Z,3.25
2023-03-05T15:51:57.026Z,3.90
2023-03-05T15:54:25.217Z,5.05
2023-03-05T15:56:54.618Z,3.72
2023-03-05T15:59:22.460Z,4.80
2023-03-05T16:01:52.087Z,3.80
2023-03-05T16:04:20.187Z,3.72
2023-03-05T16:06:50.863Z,3.53
2023-03-05T16:09:21.782Z,3.88
2023-03-05T16:11:51.433Z,3.97
2023-03-05T16:14:23.356Z,4.47
2023-03-05T16:16:52.260Z,4.10
2023-03-05T16:19:21.195Z,2.60
2023-03-05T16:21:49.408Z,4.28
2023-03-05T16:24:17.142Z,3.50
2023-03-05T16:26:44.887Z,3.78
2023-03-05T16:29:13.193Z,4.35
2023-03-05T16:31:43.196Z,3.83
2023-03-05T16:34:13.937Z,3.83
2023-03-05T16:36:47.061Z,3.38
2023-03-05T16:39:14.933Z,4.55
2023-03-05T16:41:42.710Z,3.45
2023-03-05T16:44:10.969Z,4.13
2023-03-05T16:46:41.378Z,4.38
2023-03-05T16:49:11.255Z,3.85
2023-03-05T16:51:39.185Z,3.15
2023-03-05T16:54:09.641Z,4.18
2023-03-05T16:56:37.984Z,3.80
2023-03-05T16:59:05.768Z,4.00
2023-03-05T17:01:33.801Z,4.35
2023-03-05T17:04:02.204Z,4.45
2023-03-05T17:06:32.597Z,4.57
2023-03-05T17:09:00.669Z,4.38
2023-03-05T17:11:28.483Z,3.85
2023-03-05T17:13:56.241Z,4.57
2023-03-05T17:16:24.924Z,4.57
2023-03-05T17:18:52.838Z,4.07
2023-03-05T17:21:20.556Z,3.65
2023-03-05T17:23:49.699Z,4.15
2023-03-05T17:26:21.839Z,3.47
2023-03-05T17:28:49.911Z,3.67
2023-03-05T17:31:17.706Z,3.95
2023-03-05T17:33:45.545Z,3.20
2023-03-05T17:36:18.390Z,3.20
2023-03-05T17:38:47.612Z,2.78
2023-03-05T17:41:18.350Z,4.10
2023-03-05T17:43:46.481Z,3.88
2023-03-05T17:46:14.887Z,3.75
2023-03-05T17:48:43.020Z,5.68
2023-03-05T17:51:13.638Z,5.20
2023-03-05T17:53:41.554Z,4.85
2023-03-05T17:56:10.643Z,4.60
2023-03-05T17:58:39.954Z,3.05
2023-03-05T18:01:08.656Z,3.78
2023-03-05T18:03:37.190Z,3.33
2023-03-05T18:06:05.349Z,4.13
2023-03-05T18:08:33.285Z,3.58
2023-03-05T18:11:01.281Z,4.28
2023-03-05T18:13:29.180Z,3.70
2023-03-05T18:16:00.387Z,4.25
2023-03-05T18:18:28.389Z,3.42
2023-03-05T18:20:56.696Z,4.43
2023-03-05T18:23:24.445Z,4.25
2023-03-05T18:25:52.239Z,3.63
2023-03-05T18:28:20.104Z,3.65
2023-03-05T18:30:48.920Z,4.78
2023-03-05T18:33:20.586Z,3.15
2023-03-05T18:35:51.944Z,4.00
2023-03-05T18:38:20.415Z,4.60
2023-03-05T18:40:51.102Z,3.70
2023-03-05T18:43:20.407Z,4.32
2023-03-05T18:45:48.780Z,3.50
2023-03-05T18:48:18.171Z,4.05
2023-03-05T18:50:46.405Z,5.40
2023-03-05T18:53:14.381Z,10.23
2023-03-05T18:55:42.841Z,11.95
2023-03-05T18:58:13.577Z,10.18
2023-03-05T19:00:43.725Z,7.53
2023-03-05T19:03:12.131Z,4.90
2023-03-05T19:05:41.812Z,5.00
2023-03-05T19:08:09.956Z,3.40
2023-03-05T19:10:37.767Z,6.22
2023-03-05T19:13:43.780Z,5.28
2023-03-05T19:16:13.717Z,5.78
2023-03-05T19:19:19.679Z,5.18
2023-03-05T19:21:53.420Z,5.15
2023-03-05T19:26:50.425Z,4.15
2023-03-05T19:29:18.212Z,4.63
2023-03-05T19:31:45.958Z,5.70
2023-03-05T19:34:13.743Z,6.30
2023-03-05T19:36:41.495Z,5.43
2023-03-05T19:39:10.719Z,5.60
2023-03-05T19:41:38.659Z,5.43
2023-03-05T19:44:07.094Z,5.40
2023-03-05T19:46:34.844Z,4.97
2023-03-05T19:49:02.619Z,4.70
2023-03-05T19:51:30.443Z,5.03
2023-03-05T19:53:58.195Z,5.28
2023-03-05T19:56:27.432Z,4.28
2023-03-05T19:58:55.222Z,5.60
2023-03-05T20:01:25.918Z,4.75
2023-03-05T20:03:55.018Z,5.63
2023-03-05T20:06:23.600Z,4.55
2023-03-05T20:08:51.487Z,3.72
2023-03-05T20:11:21.077Z,6.13
2023-03-05T20:13:50.789Z,5.68
2023-03-05T20:16:20.110Z,4.97
2023-03-05T20:18:52.518Z,4.25
2023-03-05T20:21:23.133Z,4.05
2023-03-05T20:23:51.242Z,3.55
2023-03-05T20:26:19.577Z,3.40
2023-03-05T20:28:47.382Z,4.18
2023-03-05T20:31:19.239Z,3.75
2023-03-05T20:33:47.106Z,4.70
2023-03-05T20:36:14.944Z,3.28
2023-03-05T20:38:45.201Z,4.70
2023-03-05T20:41:15.011Z,4.50
2023-03-05T20:43:44.767Z,5.43
2023-03-05T20:46:18.881Z,4.47
2023-03-05T20:48:49.467Z,5.28
2023-03-05T20:51:20.640Z,4.72
2023-03-05T20:53:48.540Z,4.88
2023-03-05T20:56:16.592Z,4.65
2023-03-05T20:58:44.581Z,5.15
2023-03-05T21:01:12.601Z,4.55
2023-03-05T21:03:42.073Z,6.22
2023-03-05T21:06:09.874Z,4.68
2023-03-05T21:08:37.704Z,5.32
2023-03-05T21:11:07.540Z,5.13
2023-03-05T21:13:38.702Z,6.28
2023-03-05T21:16:11.639Z,5.53
2023-03-05T21:18:39.423Z,6.57
2023-03-05T21:21:09.145Z,5.20
2023-03-05T21:23:37.069Z,6.05
2023-03-05T21:26:05.074Z,5.05
2023-03-05T21:28:33.145Z,6.50
2023-03-05T21:31:07.962Z,6.47
2023-03-05T21:33:36.160Z,7.38
2023-03-05T21:36:04.560Z,6.85
2023-03-05T21:38:34.668Z,6.10
2023-03-05T21:41:03.408Z,5.20
2023-03-05T21:43:32.082Z,6.32
2023-03-05T21:46:03.066Z,5.40
2023-03-05T21:48:31.575Z,8.30
2023-03-05T21:51:00.297Z,6.88
2023-03-05T21:53:28.052Z,7.85
2023-03-05T21:56:31.038Z,7.60
2023-03-05T21:59:00.586Z,7.90
2023-03-05T22:01:28.410Z,6.75
2023-03-05T22:03:56.178Z,8.52
2023-03-05T22:06:23.959Z,7.50
2023-03-05T22:08:51.768Z,8.10
2023-03-05T22:11:20.824Z,6.68
2023-03-05T22:13:48.732Z,8.45
2023-03-05T22:16:24.317Z,8.00
2023-03-05T22:18:52.696Z,8.73
2023-03-05T22:21:22.995Z,8.18
2023-03-05T22:23:50.836Z,8.73
2023-03-05T22:26:18.592Z,8.55
2023-03-05T22:28:46.394Z,6.78
2023-03-05T22:31:22.762Z,7.82
2023-03-05T22:33:50.937Z,9.00
2023-03-05T22:36:18.855Z,8.50
2023-03-05T22:38:47.066Z,8.60
2023-03-05T22:41:16.684Z,8.10
2023-03-05T22:43:44.444Z,8.18
2023-03-05T22:46:14.010Z,7.80
2023-03-05T22:48:43.982Z,7.40
2023-03-05T22:51:12.584Z,10.30
2023-03-05T22:53:40.996Z,8.82
2023-03-05T22:56:09.844Z,7.45
2023-03-05T22:58:38.104Z,8.43
2023-03-05T23:01:13.088Z,8.25
2023-03-05T23:03:41.539Z,9.10
2023-03-05T23:06:11.488Z,7.38
2023-03-05T23:08:39.277Z,9.07
2023-03-05T23:11:11.314Z,8.20
2023-03-05T23:13:39.164Z,7.63
2023-03-05T23:16:07.697Z,8.60
2023-03-05T23:18:35.512Z,9.52
2023-03-05T23:21:03.219Z,8.25
2023-03-05T23:23:32.302Z,9.32
2023-03-05T23:26:00.299Z,8.73
2023-03-05T23:28:28.179Z,9.50
2023-03-05T23:30:55.914Z,8.25
2023-03-05T23:33:24.495Z,8.05
2023-03-05T23:35:54.548Z,8.48
2023-03-05T23:38:23.115Z,7.28
2023-03-05T23:40:54.261Z,9.00
2023-03-05T23:43:24.527Z,8.75
2023-03-05T23:45:55.013Z,7.95
2023-03-05T23:48:23.560Z,9.98
2023-03-05T23:50:51.608Z,9.93
2023-03-05T23:53:21.428Z,8.95
2023-03-05T23:55:49.536Z,7.85
2023-03-05T23:58:20.261Z,8.80
